Diomede, Alaska
Current Conditions -  °F | °C
As of 12:15 AM on Saturday 25 Oct 2014 (Local Time) from PATE Reporting Station
Overcast Overcast  
Wind Chill: -4°   Ceiling: 6000
Heat Index:   Visibility: 10mi
Dew Point: -2°   Wind: 7mph
Humidity: 87%   Direction: 50°NE
Pressure: 29.65"   Gusts: NA
Location:  65.1617°N, 164.975°W
Report Text: PATE 250815Z AUTO 05006KT 10SM SCT022 SCT031 OVC060 00/M02 A2965 RMK AO2 FZRANO
Loading
Personal Weather Stations






























Interactive Weather Map
Tropical Storm Tracking
New forecast layout! Learn more

10-Day Weather Forecast

Advertisements
Track Severe Weather on mobile